Time;durP1;ratioP1;P1;durP2;ratioP2;P2;SDS_P1;SDS_P2;PMS_P1;PMS_P2;Temp;Humidity;BMP_temperature;BMP_pressure;BME280_temperature;BME280_humidity;BME280_pressure;Samples;Min_cycle;Max_cycle;Signal;HPM_P1;HPM_P2
2023/03/13 00:02:14;;;;;;;14.57;4.47;;;12.00;99.90;;;;;;4916125;29;20217;-85
2023/03/13 00:04:39;;;;;;;11.17;4.97;;;12.10;99.90;;;;;;4922956;29;20946;-88
2023/03/13 00:07:06;;;;;;;8.03;3.93;;;11.90;99.90;;;;;;4925543;29;20182;-87
2023/03/13 00:09:31;;;;;;;9.63;4.53;;;11.90;99.90;;;;;;4919069;29;20227;-87
2023/03/13 00:11:57;;;;;;;9.20;3.80;;;11.90;99.90;;;;;;4919264;29;20916;-88
2023/03/13 00:14:23;;;;;;;10.70;4.30;;;12.00;99.90;;;;;;4918425;29;20189;-87
2023/03/13 00:16:48;;;;;;;9.70;3.87;;;12.00;99.90;;;;;;4918104;29;20730;-88
2023/03/13 00:19:14;;;;;;;10.57;3.93;;;12.10;99.90;;;;;;4907184;29;20238;-89
2023/03/13 00:21:40;;;;;;;8.00;4.00;;;12.00;99.90;;;;;;4934237;29;20189;-88
2023/03/13 00:24:08;;;;;;;14.23;4.27;;;12.10;99.90;;;;;;4922559;29;20889;-88
2023/03/13 00:26:33;;;;;;;7.37;3.70;;;12.10;99.90;;;;;;4916777;29;20584;-86
2023/03/13 00:28:59;;;;;;;12.63;3.60;;;12.10;99.90;;;;;;4916169;29;20481;-88
2023/03/13 00:31:31;;;;;;;8.50;4.30;;;12.20;99.90;;;;;;4918552;29;20183;-88
2023/03/13 00:33:59;;;;;;;10.17;3.87;;;12.20;99.90;;;;;;4917314;29;20191;-88
2023/03/13 00:36:31;;;;;;;9.13;4.27;;;12.20;99.90;;;;;;4918137;29;20442;-85
2023/03/13 00:38:57;;;;;;;11.33;4.20;;;12.20;99.90;;;;;;4917795;29;20445;-88
2023/03/13 00:41:28;;;;;;;12.03;4.37;;;12.20;99.90;;;;;;4906352;29;20441;-89
2023/03/13 00:43:54;;;;;;;7.33;4.00;;;12.30;99.90;;;;;;4903997;29;20479;-89
2023/03/13 00:46:22;;;;;;;8.73;3.77;;;12.30;99.90;;;;;;4902832;29;20514;-88
2023/03/13 00:48:48;;;;;;;7.77;3.83;;;12.40;99.90;;;;;;4916303;29;20431;-89
2023/03/13 00:51:16;;;;;;;7.77;3.73;;;12.40;99.90;;;;;;4906851;29;20449;-89
2023/03/13 00:53:43;;;;;;;9.13;4.57;;;12.40;99.90;;;;;;4903863;29;20446;-89
2023/03/13 00:56:11;;;;;;;8.83;3.90;;;12.30;99.90;;;;;;4933391;29;20480;-89
2023/03/13 00:58:39;;;;;;;12.10;4.20;;;12.20;99.90;;;;;;4915645;29;20459;-89
2023/03/13 01:01:10;;;;;;;8.00;4.70;;;12.20;99.90;;;;;;4917418;29;20988;-89
2023/03/13 01:03:37;;;;;;;6.90;4.40;;;12.20;99.90;;;;;;4915971;29;20465;-89
2023/03/13 01:06:05;;;;;;;11.83;4.00;;;12.20;99.90;;;;;;4918009;29;20442;-88
2023/03/13 01:08:31;;;;;;;10.23;4.00;;;12.10;99.90;;;;;;4913690;29;20503;-85
2023/03/13 01:11:08;;;;;;;7.47;3.93;;;12.10;99.90;;;;;;4912466;29;20852;-89
2023/03/13 01:13:35;;;;;;;7.87;3.57;;;12.20;99.90;;;;;;4916710;29;20445;-85
2023/03/13 01:16:18;;;;;;;8.13;3.03;;;12.10;99.90;;;;;;4900512;29;20435;-89
2023/03/13 01:18:46;;;;;;;10.90;3.40;;;11.90;99.90;;;;;;4908197;29;20530;-89
2023/03/13 01:21:13;;;;;;;6.23;4.23;;;12.00;99.90;;;;;;4913996;29;20526;-88
2023/03/13 01:23:39;;;;;;;7.40;3.63;;;12.00;99.90;;;;;;4898896;29;20866;-85
2023/03/13 01:26:06;;;;;;;9.83;3.93;;;12.00;99.90;;;;;;4927607;29;20462;-88
2023/03/13 01:28:33;;;;;;;10.20;3.40;;;12.10;99.90;;;;;;4927441;29;20192;-84
2023/03/13 01:30:59;;;;;;;6.73;3.43;;;12.00;99.90;;;;;;4939521;29;20458;-88
2023/03/13 01:33:25;;;;;;;5.20;3.00;;;11.90;99.90;;;;;;4941126;29;20426;-89
2023/03/13 01:35:51;;;;;;;5.30;3.17;;;11.90;99.90;;;;;;4937967;29;20598;-88
2023/03/13 01:38:17;;;;;;;12.37;4.03;;;11.80;99.90;;;;;;4935332;29;20476;-88
2023/03/13 01:40:48;;;;;;;5.60;3.07;;;11.80;99.90;;;;;;4920944;29;20434;-89
2023/03/13 01:43:20;;;;;;;5.33;3.27;;;11.80;99.90;;;;;;4916350;29;20504;-89
2023/03/13 01:45:58;;;;;;;10.37;4.17;;;12.00;99.90;;;;;;4917055;29;20509;-89
2023/03/13 01:48:36;;;;;;;9.47;3.70;;;11.90;99.90;;;;;;4917957;29;20450;-89
2023/03/13 01:51:15;;;;;;;11.93;4.17;;;12.00;99.90;;;;;;4901013;29;20426;-89
2023/03/13 01:53:44;;;;;;;9.00;3.53;;;11.90;99.90;;;;;;4909251;29;20418;-88
2023/03/13 01:56:15;;;;;;;17.63;5.53;;;12.00;99.90;;;;;;4916830;29;20435;-89
2023/03/13 01:58:41;;;;;;;8.27;4.13;;;11.90;99.90;;;;;;4915932;29;20450;-89
2023/03/13 02:01:08;;;;;;;9.87;3.90;;;11.80;99.90;;;;;;4916751;29;20444;-89
2023/03/13 02:03:35;;;;;;;11.47;4.53;;;11.70;99.90;;;;;;4915989;29;20530;-85
2023/03/13 02:06:03;;;;;;;8.67;4.07;;;11.70;99.90;;;;;;4912400;29;20522;-88
2023/03/13 02:08:34;;;;;;;10.67;4.10;;;11.70;99.90;;;;;;4914940;29;20481;-88
2023/03/13 02:11:29;;;;;;;10.37;4.40;;;11.80;99.90;;;;;;4910567;29;20427;-88
2023/03/13 02:13:57;;;;;;;9.93;4.30;;;11.80;99.90;;;;;;4889785;29;20440;-89
2023/03/13 02:16:23;;;;;;;9.03;4.20;;;11.70;99.90;;;;;;4916788;29;20481;-89
2023/03/13 02:18:49;;;;;;;12.03;4.63;;;11.80;99.90;;;;;;4909262;29;20549;-89
2023/03/13 02:21:40;;;;;;;13.37;4.53;;;11.80;99.90;;;;;;4905613;29;20269;-88
2023/03/13 02:24:21;;;;;;;7.50;4.67;;;11.80;99.90;;;;;;4907079;29;20438;-89
2023/03/13 02:26:46;;;;;;;5.50;4.37;;;11.70;99.90;;;;;;4910325;29;20435;-87
2023/03/13 02:29:17;;;;;;;10.80;4.43;;;11.60;99.90;;;;;;4916036;29;20653;-88
2023/03/13 02:31:45;;;;;;;9.40;4.27;;;11.60;99.90;;;;;;4911904;29;20198;-89
2023/03/13 02:34:14;;;;;;;7.77;4.33;;;11.70;99.90;;;;;;4912945;29;20529;-89
2023/03/13 02:36:41;;;;;;;7.87;4.50;;;11.60;99.90;;;;;;4899171;29;20456;-88
2023/03/13 02:39:09;;;;;;;9.60;4.60;;;11.60;99.90;;;;;;4913227;29;20441;-88
2023/03/13 02:41:35;;;;;;;7.53;4.50;;;11.50;99.90;;;;;;4914278;29;20527;-85
2023/03/13 02:44:01;;;;;;;6.70;3.77;;;11.60;99.90;;;;;;4911475;29;20577;-88
2023/03/13 02:46:27;;;;;;;4.93;4.43;;;11.70;99.90;;;;;;4914307;29;20536;-88
2023/03/13 02:48:55;;;;;;;6.00;4.30;;;11.60;99.90;;;;;;4914052;29;20190;-88
2023/03/13 02:51:24;;;;;;;8.90;4.83;;;11.70;99.90;;;;;;4913227;29;20473;-88
2023/03/13 02:53:52;;;;;;;6.90;3.93;;;11.70;99.90;;;;;;4913049;29;20521;-87
2023/03/13 02:56:21;;;;;;;5.27;4.20;;;11.70;99.90;;;;;;4914598;29;20469;-86
2023/03/13 02:58:47;;;;;;;9.63;5.07;;;11.80;99.90;;;;;;4912537;29;20477;-88
2023/03/13 03:01:12;;;;;;;4.83;3.63;;;11.60;99.90;;;;;;4914061;29;20919;-89
2023/03/13 03:03:38;;;;;;;8.13;4.23;;;11.60;99.90;;;;;;4932070;29;20204;-84
2023/03/13 03:06:05;;;;;;;4.50;4.10;;;11.60;99.90;;;;;;4922799;29;20181;-88
2023/03/13 03:08:31;;;;;;;9.13;4.47;;;11.60;99.90;;;;;;4916550;29;20197;-89
2023/03/13 03:10:57;;;;;;;7.07;4.43;;;11.60;99.90;;;;;;4920830;29;20445;-89
2023/03/13 03:13:23;;;;;;;6.33;4.13;;;11.70;99.90;;;;;;4924361;29;20433;-89
2023/03/13 03:15:48;;;;;;;6.77;4.13;;;11.60;99.90;;;;;;4911326;29;20189;-88
2023/03/13 03:18:14;;;;;;;6.53;4.10;;;11.70;99.90;;;;;;4908324;29;20213;-89
2023/03/13 03:20:40;;;;;;;6.47;4.00;;;11.60;99.90;;;;;;4917020;29;20683;-85
2023/03/13 03:23:05;;;;;;;5.33;3.73;;;11.50;99.90;;;;;;4917277;29;20237;-89
2023/03/13 03:25:31;;;;;;;4.07;3.77;;;11.60;99.90;;;;;;4917230;29;20702;-88
2023/03/13 03:27:57;;;;;;;4.27;3.90;;;11.60;99.90;;;;;;4918368;29;20645;-89
2023/03/13 03:30:22;;;;;;;4.30;3.90;;;11.60;99.90;;;;;;4920853;29;20182;-88
2023/03/13 03:32:48;;;;;;;3.90;3.60;;;11.50;99.90;;;;;;4927269;29;20189;-88
2023/03/13 03:35:14;;;;;;;3.67;3.37;;;11.50;99.90;;;;;;4922507;29;20182;-87
2023/03/13 03:37:39;;;;;;;6.10;4.00;;;11.50;99.90;;;;;;4920086;29;20233;-84
2023/03/13 03:40:06;;;;;;;7.77;3.50;;;11.50;99.90;;;;;;4921259;29;20245;-88
2023/03/13 03:42:32;;;;;;;4.20;3.80;;;11.60;99.90;;;;;;4921680;29;20467;-87
2023/03/13 03:44:58;;;;;;;5.53;4.10;;;11.70;99.90;;;;;;4919685;29;20900;-88
2023/03/13 03:47:24;;;;;;;4.00;3.57;;;11.80;99.90;;;;;;4921324;29;20532;-88
2023/03/13 03:49:50;;;;;;;3.97;3.37;;;11.90;99.90;;;;;;4921216;29;20288;-89
2023/03/13 03:52:16;;;;;;;4.10;3.80;;;11.90;99.90;;;;;;4921973;29;20437;-88
2023/03/13 03:54:42;;;;;;;4.20;3.60;;;11.80;99.90;;;;;;4920874;29;20189;-84
2023/03/13 03:57:07;;;;;;;3.73;3.10;;;11.70;99.90;;;;;;4914568;29;20478;-89
2023/03/13 03:59:33;;;;;;;4.57;4.17;;;11.70;99.90;;;;;;4917375;29;20444;-88
2023/03/13 04:01:59;;;;;;;3.57;3.20;;;11.70;99.90;;;;;;4918076;29;20196;-87
2023/03/13 04:04:25;;;;;;;4.53;3.50;;;11.70;99.90;;;;;;4920155;29;20189;-89
2023/03/13 04:06:50;;;;;;;4.70;3.77;;;11.70;99.90;;;;;;4916260;29;20193;-85
2023/03/13 04:09:16;;;;;;;3.37;3.17;;;11.70;99.90;;;;;;4928852;29;20465;-85
2023/03/13 04:11:44;;;;;;;8.13;4.00;;;11.70;99.90;;;;;;4917131;29;20694;-85
2023/03/13 04:14:10;;;;;;;4.00;3.70;;;11.70;99.90;;;;;;4915317;29;20194;-86
2023/03/13 04:16:36;;;;;;;3.83;3.50;;;11.90;99.90;;;;;;4914974;29;20450;-84
2023/03/13 04:19:01;;;;;;;3.83;3.57;;;12.00;99.90;;;;;;4917356;29;20553;-84
2023/03/13 04:21:27;;;;;;;5.83;3.80;;;11.90;99.90;;;;;;4914543;29;20220;-84
2023/03/13 04:23:53;;;;;;;3.83;3.63;;;12.00;99.90;;;;;;4900562;29;20182;-84
2023/03/13 04:26:18;;;;;;;6.33;3.30;;;12.00;99.90;;;;;;4917117;29;20198;-84
2023/03/13 04:28:44;;;;;;;3.40;3.20;;;12.00;99.90;;;;;;4915687;29;20551;-82
2023/03/13 04:31:10;;;;;;;3.97;3.60;;;12.00;99.90;;;;;;4913041;29;20647;-85
2023/03/13 04:33:36;;;;;;;3.90;3.30;;;12.00;99.90;;;;;;4914627;29;20197;-84
2023/03/13 04:36:02;;;;;;;3.97;3.77;;;12.00;99.90;;;;;;4914721;29;20291;-85
2023/03/13 04:38:27;;;;;;;3.63;3.33;;;12.00;99.90;;;;;;4915172;29;20826;-85
2023/03/13 04:40:53;;;;;;;3.80;3.60;;;12.00;99.90;;;;;;4916189;29;20452;-84
2023/03/13 04:43:19;;;;;;;4.73;3.90;;;12.10;99.90;;;;;;4917277;29;20218;-82
2023/03/13 04:45:45;;;;;;;3.77;3.57;;;12.10;99.90;;;;;;4918215;29;20277;-82
2023/03/13 04:48:11;;;;;;;3.80;3.50;;;12.10;99.90;;;;;;4917684;29;20194;-85
2023/03/13 04:50:37;;;;;;;4.30;3.97;;;12.10;99.90;;;;;;4917465;29;20455;-85
2023/03/13 04:53:03;;;;;;;4.30;4.00;;;12.10;99.90;;;;;;4917485;29;20426;-85
2023/03/13 04:55:29;;;;;;;3.50;3.30;;;12.00;99.90;;;;;;4917656;29;20194;-85
2023/03/13 04:57:55;;;;;;;3.43;3.23;;;11.90;99.90;;;;;;4917285;29;20469;-85
2023/03/13 05:00:23;;;;;;;3.20;3.10;;;12.00;99.90;;;;;;4905553;29;20186;-85
2023/03/13 05:02:48;;;;;;;4.87;3.83;;;12.10;99.90;;;;;;4916163;29;20514;-84
2023/03/13 05:05:14;;;;;;;4.10;3.90;;;12.10;99.90;;;;;;4918221;29;20449;-86
2023/03/13 05:07:40;;;;;;;3.63;3.53;;;12.10;99.90;;;;;;4916486;29;20197;-85
2023/03/13 05:10:06;;;;;;;4.07;3.77;;;12.20;99.90;;;;;;4917522;29;20261;-86
2023/03/13 05:12:32;;;;;;;4.27;3.90;;;12.30;99.90;;;;;;4916626;29;20655;-86
2023/03/13 05:14:57;;;;;;;4.47;4.17;;;12.30;99.90;;;;;;4914797;29;20455;-86
2023/03/13 05:17:23;;;;;;;4.10;3.80;;;12.20;99.90;;;;;;4916920;29;20206;-86
2023/03/13 05:19:49;;;;;;;3.90;3.70;;;12.20;99.90;;;;;;4914622;29;20223;-82
2023/03/13 05:22:15;;;;;;;5.00;3.90;;;12.20;99.90;;;;;;4917603;29;20178;-85
2023/03/13 05:24:40;;;;;;;4.17;3.83;;;12.30;99.90;;;;;;4917304;29;20507;-83
2023/03/13 05:27:06;;;;;;;4.87;4.33;;;12.20;99.90;;;;;;4913115;29;20231;-85
2023/03/13 05:29:32;;;;;;;4.37;4.17;;;12.30;99.90;;;;;;4916730;29;20201;-85
2023/03/13 05:31:57;;;;;;;4.30;4.10;;;12.30;99.90;;;;;;4900642;29;20190;-83
2023/03/13 05:34:23;;;;;;;4.20;3.90;;;12.30;99.90;;;;;;4917411;29;20218;-85
2023/03/13 05:36:49;;;;;;;4.50;4.10;;;12.40;99.90;;;;;;4916237;29;20193;-82
2023/03/13 05:39:14;;;;;;;3.70;3.50;;;12.50;99.90;;;;;;4915773;29;20265;-84
2023/03/13 05:41:40;;;;;;;3.77;3.47;;;12.60;99.90;;;;;;4914143;29;20194;-84
2023/03/13 05:44:06;;;;;;;4.43;4.13;;;12.50;99.90;;;;;;4915493;29;21023;-85
2023/03/13 05:46:32;;;;;;;3.97;3.77;;;12.50;99.90;;;;;;4916476;29;20230;-86
2023/03/13 05:48:58;;;;;;;4.23;3.83;;;12.60;99.90;;;;;;4912330;29;20657;-85
2023/03/13 05:51:24;;;;;;;3.70;3.50;;;12.50;99.90;;;;;;4915185;29;20534;-85
2023/03/13 05:53:49;;;;;;;5.63;5.20;;;12.60;99.90;;;;;;4914951;29;20190;-82
2023/03/13 05:56:15;;;;;;;4.30;4.00;;;12.60;99.90;;;;;;4916279;29;20550;-85
2023/03/13 05:58:41;;;;;;;4.47;4.17;;;12.70;99.90;;;;;;4915746;29;20206;-84
2023/03/13 06:01:11;;;;;;;5.40;4.90;;;12.70;99.90;;;;;;4911853;29;20192;-85
2023/03/13 06:03:37;;;;;;;4.17;3.97;;;12.70;99.90;;;;;;4914968;29;20193;-84
2023/03/13 06:06:03;;;;;;;4.07;3.87;;;12.80;99.90;;;;;;4898946;29;20891;-84
2023/03/13 06:08:29;;;;;;;4.10;3.90;;;12.80;99.90;;;;;;4917155;29;20482;-85
2023/03/13 06:10:58;;;;;;;3.97;3.77;;;12.80;99.90;;;;;;4915659;29;20265;-85
2023/03/13 06:13:24;;;;;;;4.23;4.03;;;12.90;99.90;;;;;;4911260;29;20447;-85
2023/03/13 06:15:55;;;;;;;4.60;4.27;;;12.80;99.90;;;;;;4916053;29;20572;-82
2023/03/13 06:18:21;;;;;;;4.37;4.17;;;12.90;99.90;;;;;;4898094;29;20224;-85
2023/03/13 06:20:48;;;;;;;4.07;3.87;;;13.00;99.90;;;;;;4913736;29;20463;-84
2023/03/13 06:23:14;;;;;;;4.30;4.00;;;13.00;99.90;;;;;;4914189;29;20939;-85
2023/03/13 06:25:40;;;;;;;4.00;3.80;;;13.00;99.90;;;;;;4914702;29;20443;-85
2023/03/13 06:28:06;;;;;;;3.40;3.20;;;13.00;99.90;;;;;;4912714;29;20441;-85
2023/03/13 06:30:32;;;;;;;3.17;3.07;;;13.00;99.90;;;;;;4914567;29;20192;-84
2023/03/13 06:32:57;;;;;;;3.70;3.40;;;13.10;99.90;;;;;;4916113;29;20231;-85
2023/03/13 06:35:23;;;;;;;2.63;2.53;;;13.20;99.90;;;;;;4915823;29;20190;-88
2023/03/13 06:37:49;;;;;;;4.13;2.40;;;13.10;99.90;;;;;;4914349;29;20467;-87
2023/03/13 06:40:15;;;;;;;2.70;2.50;;;13.20;99.90;;;;;;4916484;29;20188;-84
2023/03/13 06:42:40;;;;;;;2.97;2.77;;;13.20;99.90;;;;;;4913700;29;20197;-84
2023/03/13 06:45:07;;;;;;;2.70;2.60;;;13.20;99.90;;;;;;4915819;29;20631;-83
2023/03/13 06:47:33;;;;;;;2.97;2.87;;;13.20;99.90;;;;;;4917005;29;20631;-84
2023/03/13 06:49:58;;;;;;;2.77;2.60;;;13.10;99.90;;;;;;4915143;29;20447;-84
2023/03/13 06:52:24;;;;;;;3.00;2.90;;;13.10;99.90;;;;;;4910798;29;20196;-84
2023/03/13 06:54:50;;;;;;;2.87;2.77;;;13.10;99.90;;;;;;4910572;29;20593;-85
2023/03/13 06:57:16;;;;;;;3.10;3.00;;;13.20;99.90;;;;;;4916256;29;20477;-83
2023/03/13 06:59:41;;;;;;;3.80;3.60;;;13.20;99.90;;;;;;4905515;29;20647;-84
2023/03/13 07:02:10;;;;;;;3.40;3.30;;;13.30;99.90;;;;;;4916132;29;20625;-84
2023/03/13 07:04:36;;;;;;;3.53;3.30;;;13.30;99.90;;;;;;4916550;29;20194;-83
2023/03/13 07:07:02;;;;;;;3.73;3.50;;;13.30;99.90;;;;;;4913993;29;20963;-83
2023/03/13 07:09:28;;;;;;;4.33;3.93;;;13.30;99.90;;;;;;4914951;29;20423;-84
2023/03/13 07:11:54;;;;;;;3.90;3.60;;;13.30;99.90;;;;;;4914322;29;20190;-88
2023/03/13 07:14:20;;;;;;;3.50;3.30;;;13.40;99.90;;;;;;4908797;29;20191;-84
2023/03/13 07:16:45;;;;;;;3.67;3.47;;;13.40;99.90;;;;;;4902998;29;20301;-85
2023/03/13 07:19:12;;;;;;;3.30;3.20;;;13.50;99.90;;;;;;4912856;29;21420;-90
2023/03/13 07:21:37;;;;;;;3.50;3.20;;;13.60;99.90;;;;;;4911515;29;20209;-86
2023/03/13 07:24:03;;;;;;;4.07;3.88;;;13.60;99.90;;;;;;4914040;29;20514;-82
2023/03/13 07:26:29;;;;;;;3.60;3.40;;;13.70;99.90;;;;;;4916585;29;20191;-86
2023/03/13 07:28:55;;;;;;;3.70;3.50;;;13.80;99.90;;;;;;4909530;29;20569;-87
2023/03/13 07:31:22;;;;;;;3.43;3.33;;;13.80;99.90;;;;;;4908603;29;20198;-84
2023/03/13 07:33:51;;;;;;;3.73;3.63;;;13.80;99.90;;;;;;4916098;29;20435;-84
2023/03/13 07:36:16;;;;;;;4.20;4.00;;;13.80;99.90;;;;;;4915803;29;20406;-84
2023/03/13 07:38:42;;;;;;;3.87;3.67;;;13.80;99.90;;;;;;4916280;29;20457;-86
2023/03/13 07:41:11;;;;;;;4.10;3.80;;;13.90;99.90;;;;;;4912674;29;20197;-85
2023/03/13 07:43:37;;;;;;;4.87;4.60;;;13.90;99.90;;;;;;4915639;29;20232;-85
2023/03/13 07:46:04;;;;;;;4.60;4.30;;;14.00;99.90;;;;;;4914232;29;20509;-86
2023/03/13 07:48:32;;;;;;;4.30;4.10;;;14.00;99.90;;;;;;4901771;29;20204;-86
2023/03/13 07:50:59;;;;;;;4.13;3.73;;;14.00;99.90;;;;;;4921201;29;20529;-87
2023/03/13 07:53:25;;;;;;;4.00;3.80;;;14.00;99.90;;;;;;4919688;29;20407;-85
2023/03/13 07:55:52;;;;;;;4.17;3.90;;;14.10;99.90;;;;;;4908428;29;20467;-84
2023/03/13 07:58:17;;;;;;;5.33;4.93;;;14.00;99.90;;;;;;4903398;29;21073;-86
2023/03/13 08:00:43;;;;;;;3.90;3.80;;;14.00;99.90;;;;;;4900090;29;20483;-85
2023/03/13 08:03:09;;;;;;;5.77;5.27;;;14.00;99.90;;;;;;4912264;29;20191;-85
2023/03/13 08:05:35;;;;;;;5.70;5.20;;;14.10;99.90;;;;;;4910136;29;20197;-85
2023/03/13 08:08:00;;;;;;;4.50;4.13;;;14.10;99.90;;;;;;4911430;29;20528;-85
2023/03/13 08:10:26;;;;;;;4.60;3.50;;;14.10;99.90;;;;;;4902482;29;20195;-86
2023/03/13 08:12:52;;;;;;;5.30;4.87;;;14.10;99.90;;;;;;4904392;29;20194;-86
2023/03/13 08:15:22;;;;;;;4.50;4.10;;;14.10;99.90;;;;;;4908951;29;20191;-86
2023/03/13 08:17:48;;;;;;;4.50;4.20;;;14.10;99.90;;;;;;4918355;29;20226;-86
2023/03/13 08:20:13;;;;;;;4.23;3.73;;;14.10;99.90;;;;;;4918141;29;20428;-85
2023/03/13 08:22:39;;;;;;;6.10;4.20;;;14.20;99.90;;;;;;4901110;29;20193;-85
2023/03/13 08:25:05;;;;;;;7.37;4.43;;;14.30;99.90;;;;;;4916523;29;20453;-86
2023/03/13 08:27:31;;;;;;;5.00;4.60;;;14.30;99.90;;;;;;4914008;29;20198;-86
2023/03/13 08:29:56;;;;;;;4.10;3.90;;;14.20;99.90;;;;;;4908752;29;20431;-85
2023/03/13 08:32:22;;;;;;;5.70;4.37;;;14.30;99.90;;;;;;4913409;29;20183;-85
2023/03/13 08:34:48;;;;;;;4.67;4.37;;;14.30;99.90;;;;;;4911996;29;20578;-85
2023/03/13 08:37:14;;;;;;;4.90;3.83;;;14.30;99.90;;;;;;4915721;29;20214;-85
2023/03/13 08:39:40;;;;;;;4.13;3.83;;;14.40;99.90;;;;;;4918384;29;20186;-85
2023/03/13 08:42:10;;;;;;;5.70;4.80;;;14.40;99.90;;;;;;4917336;29;20985;-85
2023/03/13 08:44:35;;;;;;;5.07;4.53;;;14.30;99.90;;;;;;4916392;29;20229;-86
2023/03/13 08:47:01;;;;;;;6.13;3.77;;;14.30;99.90;;;;;;4916314;29;20894;-86
2023/03/13 08:49:27;;;;;;;4.40;4.00;;;14.40;99.90;;;;;;4901381;29;20215;-85
2023/03/13 08:51:52;;;;;;;4.67;4.20;;;14.40;99.90;;;;;;4899794;29;20278;-86
2023/03/13 08:54:18;;;;;;;4.60;4.13;;;14.50;99.90;;;;;;4912627;29;20195;-85
2023/03/13 08:56:45;;;;;;;4.63;4.20;;;14.60;99.90;;;;;;4901967;29;20215;-85
2023/03/13 08:59:11;;;;;;;4.47;4.07;;;14.60;99.90;;;;;;4908326;29;20312;-86
2023/03/13 09:01:37;;;;;;;5.93;3.83;;;14.60;99.90;;;;;;4900913;29;20527;-85
2023/03/13 09:04:03;;;;;;;5.63;3.57;;;14.60;99.90;;;;;;4911081;29;20804;-85
2023/03/13 09:06:29;;;;;;;4.40;4.00;;;14.60;99.90;;;;;;4911466;29;20187;-85
2023/03/13 09:08:57;;;;;;;4.67;4.27;;;14.60;99.90;;;;;;4898758;29;20962;-86
2023/03/13 09:11:22;;;;;;;5.73;4.60;;;14.60;99.90;;;;;;4915308;29;20191;-86
2023/03/13 09:13:49;;;;;;;7.97;4.37;;;14.60;99.90;;;;;;4914775;29;20450;-84
2023/03/13 09:16:21;;;;;;;5.10;4.60;;;14.60;99.90;;;;;;4921885;29;20605;-84
2023/03/13 09:18:54;;;;;;;5.33;4.80;;;14.60;99.90;;;;;;4908978;29;20530;-84
2023/03/13 09:21:31;;;;;;;4.53;4.23;;;14.60;99.90;;;;;;4922022;29;20470;-83
2023/03/13 09:23:57;;;;;;;4.97;4.30;;;14.60;99.90;;;;;;4929837;29;20459;-85
2023/03/13 09:26:24;;;;;;;5.00;4.60;;;14.60;99.90;;;;;;4910485;29;20454;-85
2023/03/13 09:28:54;;;;;;;5.33;4.90;;;14.60;99.90;;;;;;4911044;29;20430;-85
2023/03/13 09:31:25;;;;;;;5.00;4.70;;;14.60;99.90;;;;;;4914315;29;20442;-84
2023/03/13 09:33:52;;;;;;;5.20;4.70;;;14.60;99.90;;;;;;4914642;29;20427;-85
2023/03/13 09:36:19;;;;;;;4.97;4.60;;;14.70;99.90;;;;;;4907464;29;20426;-85
2023/03/13 09:38:45;;;;;;;5.40;5.00;;;14.70;99.90;;;;;;4908169;29;20455;-85
2023/03/13 09:41:17;;;;;;;4.77;4.37;;;14.80;99.90;;;;;;4898846;29;20458;-85
2023/03/13 09:44:04;;;;;;;5.60;5.03;;;14.80;99.90;;;;;;4899469;29;20885;-84
2023/03/13 09:46:46;;;;;;;5.93;5.27;;;14.90;99.90;;;;;;4898664;29;20420;-84
2023/03/13 09:49:24;;;;;;;4.70;4.30;;;15.00;99.90;;;;;;4897467;29;20413;-84
2023/03/13 09:51:58;;;;;;;5.10;4.77;;;15.00;99.90;;;;;;4916584;29;20432;-84
2023/03/13 09:54:31;;;;;;;5.37;4.90;;;15.00;99.90;;;;;;4906922;29;20496;-84
2023/03/13 09:57:15;;;;;;;5.83;5.20;;;15.00;99.90;;;;;;4916806;29;20464;-84
2023/03/13 09:59:47;;;;;;;5.00;4.50;;;15.10;99.90;;;;;;4907253;29;20474;-84
2023/03/13 10:02:33;;;;;;;5.03;4.63;;;15.20;99.90;;;;;;4916496;29;20418;-85
2023/03/13 10:05:15;;;;;;;5.90;4.43;;;15.40;99.90;;;;;;4906589;29;20464;-84
2023/03/13 10:07:40;;;;;;;4.83;4.47;;;15.60;99.90;;;;;;4916456;29;20429;-85
2023/03/13 10:10:20;;;;;;;5.70;4.57;;;15.80;99.90;;;;;;4916119;29;20918;-86
2023/03/13 10:12:54;;;;;;;9.00;5.10;;;15.80;99.90;;;;;;4915842;29;20442;-85
2023/03/13 10:15:43;;;;;;;5.00;4.60;;;15.90;99.90;;;;;;4914570;29;20448;-85
2023/03/13 10:18:16;;;;;;;5.60;5.10;;;15.90;99.90;;;;;;4909630;29;20481;-85
2023/03/13 10:20:44;;;;;;;4.50;4.20;;;16.00;99.90;;;;;;4898558;29;20904;-85
2023/03/13 10:23:21;;;;;;;4.87;4.03;;;16.10;99.90;;;;;;4915891;29;20945;-85
2023/03/13 10:25:47;;;;;;;4.10;3.90;;;16.10;99.90;;;;;;4915643;29;20504;-85
2023/03/13 10:28:15;;;;;;;4.47;4.03;;;16.10;99.90;;;;;;4911534;29;20443;-85
2023/03/13 10:30:59;;;;;;;4.67;4.33;;;16.10;99.90;;;;;;4901444;29;20175;-84
2023/03/13 10:33:28;;;;;;;4.33;3.70;;;16.20;99.90;;;;;;4905465;29;20475;-84
2023/03/13 10:36:10;;;;;;;3.73;3.53;;;16.30;99.90;;;;;;4911841;29;20458;-84
2023/03/13 10:38:50;;;;;;;3.53;3.33;;;16.40;99.90;;;;;;4916433;29;20462;-85
2023/03/13 10:41:32;;;;;;;4.53;3.30;;;16.80;99.90;;;;;;4913717;29;20449;-85
2023/03/13 10:44:30;;;;;;;3.50;3.30;;;17.20;99.90;;;;;;4916319;29;20509;-85
2023/03/13 10:47:02;;;;;;;3.80;3.50;;;17.60;99.90;;;;;;4915341;29;20974;-84
2023/03/13 10:49:28;;;;;;;3.20;3.00;;;17.90;99.90;;;;;;4915714;29;20436;-85
2023/03/13 10:52:00;;;;;;;3.77;3.40;;;18.00;99.90;;;;;;4916190;29;20441;-85
2023/03/13 10:54:34;;;;;;;3.40;3.20;;;18.00;99.90;;;;;;4930520;29;20423;-85
2023/03/13 10:57:17;;;;;;;3.13;3.03;;;17.90;99.90;;;;;;4915901;29;20529;-85
2023/03/13 10:59:46;;;;;;;3.40;3.20;;;17.80;99.90;;;;;;4914874;29;20431;-85
2023/03/13 11:02:32;;;;;;;2.90;2.70;;;17.80;99.90;;;;;;4915364;29;20449;-85
2023/03/13 11:05:18;;;;;;;3.50;2.57;;;17.50;99.90;;;;;;4915765;29;20444;-86
2023/03/13 11:07:45;;;;;;;2.70;2.50;;;17.50;99.90;;;;;;4915564;29;20438;-85
2023/03/13 11:10:19;;;;;;;4.13;3.80;;;17.50;99.90;;;;;;4913633;29;20513;-85
2023/03/13 11:12:56;;;;;;;3.00;2.67;;;17.30;99.90;;;;;;4914527;29;20521;-85
2023/03/13 11:15:38;;;;;;;3.13;2.93;;;17.20;99.90;;;;;;4914982;29;20438;-85
2023/03/13 11:18:10;;;;;;;2.80;2.70;;;17.20;99.90;;;;;;4914629;29;20486;-85
2023/03/13 11:20:38;;;;;;;2.57;2.47;;;17.20;99.90;;;;;;4906058;29;20431;-85
2023/03/13 11:23:20;;;;;;;2.67;2.50;;;17.20;99.90;;;;;;4892503;29;20981;-84
2023/03/13 11:26:05;;;;;;;2.53;2.33;;;17.30;99.90;;;;;;4895500;29;20537;-85
2023/03/13 11:29:25;;;;;;;2.30;2.10;;;17.40;99.90;;;;;;4918934;29;20446;-86
2023/03/13 11:32:01;;;;;;;2.40;2.20;;;17.50;99.90;;;;;;4854696;29;20448;-86
2023/03/13 11:34:52;;;;;;;2.53;2.43;;;17.60;99.90;;;;;;4895812;29;20427;-86
2023/03/13 11:37:20;;;;;;;4.10;2.60;;;17.60;99.90;;;;;;4911704;29;20458;-86
2023/03/13 11:39:45;;;;;;;3.13;2.93;;;17.50;99.90;;;;;;4919230;29;20513;-85
2023/03/13 11:42:38;;;;;;;2.77;2.57;;;17.50;99.90;;;;;;4917161;29;20930;-88
2023/03/13 11:45:27;;;;;;;2.90;2.47;;;17.50;99.90;;;;;;4878987;29;20227;-86
2023/03/13 11:48:09;;;;;;;2.00;1.90;;;17.50;99.90;;;;;;4880491;29;20420;-86
2023/03/13 11:50:57;;;;;;;2.50;2.40;;;17.60;99.90;;;;;;4863606;29;20405;-86
2023/03/13 11:53:49;;;;;;;2.70;2.60;;;17.70;99.90;;;;;;4877702;29;20444;-86
2023/03/13 11:56:51;;;;;;;2.80;2.70;;;17.70;99.90;;;;;;4891128;29;20761;-86
2023/03/13 11:59:58;;;;;;;2.60;2.50;;;17.70;99.90;;;;;;4871178;29;20554;-85
2023/03/13 12:02:31;;;;;;;2.70;2.60;;;17.70;99.90;;;;;;4859752;29;20440;-85
2023/03/13 12:05:06;;;;;;;2.37;2.27;;;18.00;99.90;;;;;;4877866;29;20450;-86
2023/03/13 12:08:01;;;;;;;2.90;2.80;;;18.10;99.90;;;;;;4879929;29;20530;-85
2023/03/13 12:10:33;;;;;;;3.10;2.83;;;18.30;99.90;;;;;;4879912;29;20446;-86
2023/03/13 12:13:08;;;;;;;2.93;2.73;;;18.30;99.90;;;;;;4881566;29;20451;-85
2023/03/13 12:15:52;;;;;;;2.60;2.50;;;18.30;99.90;;;;;;4883945;29;20461;-86
2023/03/13 12:18:33;;;;;;;3.63;3.53;;;18.10;99.90;;;;;;4883644;29;20472;-84
2023/03/13 12:21:23;;;;;;;3.00;2.80;;;18.10;99.90;;;;;;4881154;29;20433;-86
2023/03/13 12:23:58;;;;;;;2.90;2.80;;;18.00;99.90;;;;;;4904189;29;20460;-85
2023/03/13 12:26:51;;;;;;;2.50;2.40;;;18.00;99.90;;;;;;4893910;29;20439;-86
2023/03/13 12:29:44;;;;;;;3.10;2.90;;;18.00;99.90;;;;;;4895681;29;20468;-86
2023/03/13 12:32:36;;;;;;;2.50;2.40;;;18.10;99.90;;;;;;4895116;29;20451;-85
2023/03/13 12:35:08;;;;;;;2.13;2.03;;;18.20;99.90;;;;;;4880919;29;20447;-85
2023/03/13 12:37:44;;;;;;;2.50;2.40;;;18.30;99.90;;;;;;4864194;29;21095;-85
2023/03/13 12:40:28;;;;;;;2.57;2.47;;;18.40;99.90;;;;;;4863161;29;20782;-85
2023/03/13 12:43:21;;;;;;;2.40;2.30;;;18.40;99.90;;;;;;4879975;29;20486;-85
2023/03/13 12:45:56;;;;;;;2.00;2.00;;;18.20;99.90;;;;;;4908705;29;20442;-85
2023/03/13 12:48:46;;;;;;;2.13;2.03;;;18.10;99.90;;;;;;4900640;29;20784;-85
2023/03/13 12:51:40;;;;;;;2.10;2.00;;;18.10;99.90;;;;;;4918179;29;20452;-87
2023/03/13 12:54:27;;;;;;;2.30;2.20;;;17.90;99.90;;;;;;4909629;29;20859;-85
2023/03/13 12:57:11;;;;;;;2.10;2.00;;;18.00;99.90;;;;;;4924292;29;20427;-85
2023/03/13 12:59:40;;;;;;;2.43;2.30;;;18.00;99.90;;;;;;4896730;29;20458;-85
2023/03/13 13:02:23;;;;;;;6.00;2.43;;;18.00;99.90;;;;;;4922365;29;20424;-86